createdAt,value
2017-05-04T00:04:56.175Z,1021.935
2017-05-04T00:07:50.642Z,1021.956
2017-05-04T00:10:45.008Z,1021.889
2017-05-04T00:13:39.552Z,1021.832
2017-05-04T00:16:34.038Z,1021.771
2017-05-04T00:19:28.452Z,1021.745
2017-05-04T00:22:22.691Z,1021.699
2017-05-04T00:25:17.106Z,1021.656
2017-05-04T00:28:11.415Z,1021.616
2017-05-04T00:34:00.157Z,1021.518
2017-05-04T00:36:54.551Z,1021.470
2017-05-04T00:39:48.849Z,1021.462
2017-05-04T00:42:43.254Z,1021.448
2017-05-04T00:45:37.782Z,1021.446
2017-05-04T00:51:26.332Z,1021.437
2017-05-04T00:54:20.660Z,1021.429
2017-05-04T00:57:15.026Z,1021.403
2017-05-04T01:00:09.426Z,1021.393
2017-05-04T01:03:03.778Z,1021.401
2017-05-04T01:05:58.299Z,1021.453
2017-05-04T01:08:52.704Z,1021.442
2017-05-04T01:11:47.118Z,1021.420
2017-05-04T01:14:41.531Z,1021.434
2017-05-04T01:17:35.917Z,1021.447
2017-05-04T01:20:30.192Z,1021.412
2017-05-04T01:23:24.582Z,1021.432
2017-05-04T01:26:18.828Z,1021.414
2017-05-04T01:29:13.264Z,1021.410
2017-05-04T01:32:07.649Z,1021.348
2017-05-04T01:35:01.998Z,1021.315
2017-05-04T01:37:56.424Z,1021.294
2017-05-04T01:40:50.679Z,1021.279
2017-05-04T01:43:45.010Z,1021.256
2017-05-04T01:46:39.379Z,1021.229
2017-05-04T01:49:33.757Z,1021.184
2017-05-04T01:52:28.240Z,1021.170
2017-05-04T01:55:22.564Z,1021.157
2017-05-04T01:58:16.888Z,1021.167
2017-05-04T02:01:11.198Z,1021.170
2017-05-04T02:04:05.745Z,1021.144
2017-05-04T02:07:00.134Z,1021.118
2017-05-04T02:09:54.315Z,1021.118
2017-05-04T02:12:48.673Z,1021.125
2017-05-04T02:15:42.890Z,1021.081
2017-05-04T02:18:37.310Z,1021.084
2017-05-04T02:21:31.623Z,1021.090
2017-05-04T02:24:25.962Z,1021.103
2017-05-04T02:27:20.369Z,1021.088
2017-05-04T02:30:14.640Z,1021.075
2017-05-04T02:33:08.895Z,1021.075
2017-05-04T02:36:03.344Z,1021.096
2017-05-04T02:38:57.639Z,1021.085
2017-05-04T02:41:51.921Z,1021.048
2017-05-04T02:44:46.352Z,1021.003
2017-05-04T02:47:40.729Z,1020.999
2017-05-04T02:50:35.016Z,1020.976
2017-05-04T02:53:29.307Z,1020.950
2017-05-04T02:56:23.604Z,1020.925
2017-05-04T02:59:17.897Z,1020.909
2017-05-04T03:02:12.189Z,1020.942
2017-05-04T03:05:06.486Z,1020.891
2017-05-04T03:08:00.789Z,1020.883
2017-05-04T03:10:55.093Z,1020.809
2017-05-04T03:13:49.382Z,1020.797
2017-05-04T03:16:43.611Z,1020.805
2017-05-04T03:19:37.997Z,1020.823
2017-05-04T03:22:32.154Z,1020.831
2017-05-04T03:25:26.372Z,1020.787
2017-05-04T03:28:20.708Z,1020.802
2017-05-04T03:34:09.173Z,1020.753
2017-05-04T03:37:03.558Z,1020.758
2017-05-04T03:39:57.849Z,1020.785
2017-05-04T03:42:52.051Z,1020.756
2017-05-04T03:45:46.349Z,1020.761
2017-05-04T03:48:40.527Z,1020.798
2017-05-04T03:51:34.749Z,1020.838
2017-05-04T03:57:23.288Z,1020.794
2017-05-04T04:00:17.530Z,1020.807
2017-05-04T04:06:06.148Z,1020.800
2017-05-04T04:11:54.595Z,1020.741
2017-05-04T04:14:48.732Z,1020.738
2017-05-04T04:17:42.898Z,1020.791
2017-05-04T04:20:37.142Z,1020.828
2017-05-04T04:23:31.707Z,1020.751
2017-05-04T04:26:25.883Z,1020.772
2017-05-04T04:29:20.113Z,1020.737
2017-05-04T04:32:14.327Z,1020.734
2017-05-04T04:38:02.723Z,1020.730
2017-05-04T04:40:56.873Z,1020.718
2017-05-04T04:43:51.052Z,1020.686
2017-05-04T04:46:45.349Z,1020.689
2017-05-04T04:49:39.585Z,1020.634
2017-05-04T04:52:33.809Z,1020.630
2017-05-04T04:55:28.043Z,1020.702
2017-05-04T05:01:16.467Z,1020.644
2017-05-04T05:04:11.024Z,1020.652
2017-05-04T05:07:05.277Z,1020.672
2017-05-04T05:09:59.489Z,1020.641
2017-05-04T05:12:53.962Z,1020.689
2017-05-04T05:18:42.375Z,1020.671
2017-05-04T05:21:36.596Z,1020.684
2017-05-04T05:24:30.820Z,1020.637
2017-05-04T05:27:24.974Z,1020.569
2017-05-04T05:30:19.160Z,1020.548
2017-05-04T05:36:08.166Z,1020.526
2017-05-04T05:39:02.447Z,1020.554
2017-05-04T05:41:56.740Z,1020.576
2017-05-04T05:44:50.977Z,1020.620
2017-05-04T05:47:45.223Z,1020.548
2017-05-04T05:50:39.474Z,1020.579
2017-05-04T05:53:33.721Z,1020.581
2017-05-04T05:59:22.183Z,1020.545
2017-05-04T06:02:16.397Z,1020.560
2017-05-04T06:05:10.705Z,1020.503
2017-05-04T06:08:04.942Z,1020.502
2017-05-04T06:10:59.160Z,1020.500
2017-05-04T06:13:53.608Z,1020.477
2017-05-04T06:16:47.907Z,1020.480
2017-05-04T06:19:42.067Z,1020.452
2017-05-04T06:22:36.202Z,1020.500
2017-05-04T06:25:30.366Z,1020.473
2017-05-04T06:28:24.820Z,1020.505
2017-05-04T06:31:19.050Z,1020.468
2017-05-04T06:34:13.304Z,1020.465
2017-05-04T06:37:07.592Z,1020.402
2017-05-04T06:42:56.026Z,1020.407
2017-05-04T06:48:44.457Z,1020.381
2017-05-04T06:51:38.744Z,1020.351
2017-05-04T06:57:27.266Z,1020.387
2017-05-04T07:03:15.665Z,1020.389
2017-05-04T07:06:09.912Z,1020.354
2017-05-04T07:14:52.739Z,1020.300
2017-05-04T07:17:46.994Z,1020.296
2017-05-04T07:20:41.347Z,1020.310
2017-05-04T07:23:35.685Z,1020.292
2017-05-04T07:26:29.819Z,1020.303
2017-05-04T07:29:24.176Z,1020.308
2017-05-04T07:32:18.519Z,1020.348
2017-05-04T07:35:12.848Z,1020.353
2017-05-04T07:38:07.152Z,1020.374
2017-05-04T07:41:01.465Z,1020.385
2017-05-04T07:43:55.731Z,1020.380
2017-05-04T07:46:49.957Z,1020.395
2017-05-04T07:49:44.184Z,1020.440
2017-05-04T07:52:38.610Z,1020.429
2017-05-04T07:58:27.689Z,1020.420
2017-05-04T08:01:21.841Z,1020.453
2017-05-04T08:04:16.203Z,1020.420
2017-05-04T08:10:04.858Z,1020.315
2017-05-04T08:15:53.075Z,1020.249
2017-05-04T08:18:47.290Z,1020.224
2017-05-04T08:24:35.788Z,1020.288
2017-05-04T08:27:30.149Z,1020.263
2017-05-04T08:30:24.426Z,1020.218
2017-05-04T08:33:18.700Z,1020.200
2017-05-04T08:36:13.003Z,1020.139
2017-05-04T08:39:07.245Z,1020.136
2017-05-04T08:42:01.598Z,1020.167
2017-05-04T08:44:55.817Z,1020.155
2017-05-04T08:47:50.101Z,1020.110
2017-05-04T08:50:44.207Z,1020.104
2017-05-04T08:53:38.440Z,1020.032
2017-05-04T08:56:32.777Z,1019.984
2017-05-04T09:02:21.259Z,1019.950
2017-05-04T09:05:15.499Z,1019.974
2017-05-04T09:08:09.755Z,1019.885
2017-05-04T09:11:04.072Z,1019.883
2017-05-04T09:13:58.382Z,1019.866
2017-05-04T09:16:52.671Z,1019.827
2017-05-04T09:19:46.974Z,1019.867
2017-05-04T09:22:41.240Z,1019.907
2017-05-04T09:25:35.487Z,1019.869
2017-05-04T09:28:29.727Z,1019.825
2017-05-04T09:31:24.017Z,1019.779
2017-05-04T09:34:18.353Z,1019.791
2017-05-04T09:37:12.581Z,1019.799
2017-05-04T09:40:06.813Z,1019.792
2017-05-04T09:43:01.248Z,1019.794
2017-05-04T09:45:55.595Z,1019.778
2017-05-04T09:48:49.825Z,1019.792
2017-05-04T09:54:38.284Z,1019.816
2017-05-04T09:57:32.632Z,1019.798
2017-05-04T10:00:26.837Z,1019.779
2017-05-04T10:03:21.299Z,1019.782
2017-05-04T10:06:15.634Z,1019.768
2017-05-04T10:09:09.988Z,1019.738
2017-05-04T10:12:04.305Z,1019.739
2017-05-04T10:14:58.788Z,1019.673
2017-05-04T10:17:53.181Z,1019.614
2017-05-04T10:20:47.569Z,1019.656
2017-05-04T10:23:41.962Z,1019.618
2017-05-04T10:26:36.301Z,1019.590
2017-05-04T10:32:25.045Z,1019.528
2017-05-04T10:35:19.338Z,1019.512
2017-05-04T10:38:13.716Z,1019.536
2017-05-04T10:41:08.067Z,1019.501
2017-05-04T10:44:02.342Z,1019.522
2017-05-04T10:46:56.683Z,1019.535
2017-05-04T10:49:50.947Z,1019.530
2017-05-04T10:52:45.199Z,1019.497
2017-05-04T10:55:39.464Z,1019.447
2017-05-04T10:58:33.834Z,1019.427
2017-05-04T11:01:28.066Z,1019.384
2017-05-04T11:04:22.549Z,1019.371
2017-05-04T11:07:16.873Z,1019.373
2017-05-04T11:10:11.265Z,1019.376
2017-05-04T11:13:05.823Z,1019.355
2017-05-04T11:18:54.254Z,1019.323
2017-05-04T11:21:48.487Z,1019.307
2017-05-04T11:24:42.840Z,1019.347
2017-05-04T11:27:37.054Z,1019.294
2017-05-04T11:33:26.001Z,1019.268
2017-05-04T11:36:20.286Z,1019.256
2017-05-04T11:42:08.791Z,1019.166
2017-05-04T11:45:03.064Z,1019.149
2017-05-04T11:47:57.276Z,1019.169
2017-05-04T11:53:46.071Z,1019.197
2017-05-04T11:56:40.265Z,1019.232
2017-05-04T11:59:34.515Z,1019.170
2017-05-04T12:02:28.712Z,1019.099
2017-05-04T12:05:22.969Z,1019.088
2017-05-04T12:08:17.388Z,1019.109
2017-05-04T12:11:11.637Z,1019.072
2017-05-04T12:14:05.802Z,1019.036
2017-05-04T12:17:00.176Z,1019.034
2017-05-04T12:19:54.431Z,1018.987
2017-05-04T12:25:43.428Z,1018.936
2017-05-04T12:28:37.724Z,1018.904
2017-05-04T12:31:31.999Z,1018.870
2017-05-04T12:34:26.316Z,1018.853
2017-05-04T12:37:20.613Z,1018.857
2017-05-04T12:40:14.943Z,1018.830
2017-05-04T12:43:09.329Z,1018.828
2017-05-04T12:46:03.598Z,1018.838
2017-05-04T12:48:57.882Z,1018.817
2017-05-04T12:51:52.165Z,1018.827
2017-05-04T12:54:46.467Z,1018.759
2017-05-04T12:57:40.751Z,1018.740
2017-05-04T13:00:35.035Z,1018.652
2017-05-04T13:03:29.345Z,1018.691
2017-05-04T13:09:17.930Z,1018.589
2017-05-04T13:12:12.137Z,1018.597
2017-05-04T13:15:06.319Z,1018.556
2017-05-04T13:18:00.673Z,1018.585
2017-05-04T13:20:54.985Z,1018.581
2017-05-04T13:23:49.314Z,1018.492
2017-05-04T13:26:43.536Z,1018.459
2017-05-04T13:32:31.982Z,1018.477
2017-05-04T13:35:26.264Z,1018.495
2017-05-04T13:38:20.497Z,1018.503
2017-05-04T13:41:14.754Z,1018.489
2017-05-04T13:44:09.038Z,1018.494
2017-05-04T13:47:03.329Z,1018.479
2017-05-04T13:49:57.629Z,1018.503
2017-05-04T13:55:45.967Z,1018.488
2017-05-04T13:58:40.286Z,1018.415
2017-05-04T14:01:34.543Z,1018.406
2017-05-04T14:04:28.809Z,1018.376
2017-05-04T14:07:23.105Z,1018.322
2017-05-04T14:10:17.348Z,1018.272
2017-05-04T14:13:11.622Z,1018.292
2017-05-04T14:16:05.840Z,1018.246
2017-05-04T14:19:00.064Z,1018.269
2017-05-04T14:21:54.343Z,1018.226
2017-05-04T14:24:48.626Z,1018.196
2017-05-04T14:27:42.785Z,1018.173
2017-05-04T14:30:37.026Z,1018.158
2017-05-04T14:33:31.336Z,1018.146
2017-05-04T14:36:25.617Z,1018.151
2017-05-04T14:39:19.955Z,1018.183
2017-05-04T14:45:08.817Z,1018.124
2017-05-04T14:48:02.940Z,1018.095
2017-05-04T14:50:57.195Z,1018.085
2017-05-04T14:53:51.406Z,1018.169
2017-05-04T14:56:45.739Z,1018.082
2017-05-04T14:59:40.035Z,1018.065
2017-05-04T15:05:28.543Z,1018.064
2017-05-04T15:08:22.732Z,1018.078
2017-05-04T15:11:16.981Z,1018.169
2017-05-04T15:14:11.042Z,1018.085
2017-05-04T15:17:05.284Z,1018.082
2017-05-04T15:19:59.481Z,1018.071
2017-05-04T15:22:54.030Z,1018.014
2017-05-04T15:28:42.469Z,1018.074
2017-05-04T15:31:36.709Z,1018.031
2017-05-04T15:34:31.032Z,1018.042
2017-05-04T15:37:25.153Z,1018.008
2017-05-04T15:40:19.453Z,1017.960
2017-05-04T15:43:13.577Z,1017.926
2017-05-04T15:46:07.758Z,1017.929
2017-05-04T15:49:01.962Z,1017.942
2017-05-04T15:51:56.304Z,1017.908
2017-05-04T15:54:50.583Z,1017.886
2017-05-04T15:57:44.782Z,1017.896
2017-05-04T16:00:38.964Z,1017.882
2017-05-04T16:03:33.244Z,1017.913
2017-05-04T16:06:27.405Z,1017.932
2017-05-04T16:09:21.773Z,1017.907
2017-05-04T16:12:16.046Z,1017.916
2017-05-04T16:15:10.310Z,1017.897
2017-05-04T16:18:04.457Z,1017.868
2017-05-04T16:20:58.726Z,1017.884
2017-05-04T16:26:47.206Z,1017.893
2017-05-04T16:35:30.130Z,1017.989
2017-05-04T16:38:24.440Z,1017.920
2017-05-04T16:41:18.688Z,1017.901
2017-05-04T16:44:12.970Z,1017.884
2017-05-04T16:47:07.265Z,1017.921
2017-05-04T16:50:01.458Z,1017.917
2017-05-04T16:52:55.716Z,1017.951
2017-05-04T16:55:50.027Z,1017.973
2017-05-04T16:58:44.383Z,1017.948
2017-05-04T17:01:38.675Z,1017.949
2017-05-04T17:04:33.004Z,1017.945
2017-05-04T17:10:21.861Z,1017.974
2017-05-04T17:21:58.937Z,1017.926
2017-05-04T17:27:47.378Z,1017.979
2017-05-04T17:30:41.701Z,1018.058
2017-05-04T17:33:35.906Z,1018.053
2017-05-04T17:36:30.222Z,1018.087
2017-05-04T17:39:24.303Z,1018.117
2017-05-04T17:42:18.649Z,1018.155
2017-05-04T17:45:12.887Z,1018.179
2017-05-04T17:48:07.043Z,1018.167
2017-05-04T17:53:55.662Z,1018.227
2017-05-04T17:56:50.001Z,1018.197
2017-05-04T17:59:44.111Z,1018.239
2017-05-04T18:02:38.287Z,1018.233
2017-05-04T18:05:32.613Z,1018.232
2017-05-04T18:08:26.838Z,1018.212
2017-05-04T18:11:21.067Z,1018.201
2017-05-04T18:17:09.581Z,1018.223
2017-05-04T18:25:52.378Z,1018.240
2017-05-04T18:28:46.643Z,1018.227
2017-05-04T18:31:40.914Z,1018.239
2017-05-04T18:37:29.453Z,1018.288
2017-05-04T18:43:17.940Z,1018.366
2017-05-04T18:46:12.197Z,1018.364
2017-05-04T18:49:06.378Z,1018.411
2017-05-04T18:52:00.584Z,1018.412
2017-05-04T18:57:49.145Z,1018.439
2017-05-04T19:00:43.446Z,1018.437
2017-05-04T19:06:31.749Z,1018.471
2017-05-04T19:09:26.011Z,1018.492
2017-05-04T19:12:20.295Z,1018.489
2017-05-04T19:15:14.631Z,1018.478
2017-05-04T19:18:08.821Z,1018.511
2017-05-04T19:21:03.111Z,1018.462
2017-05-04T19:23:57.279Z,1018.518
2017-05-04T19:26:51.568Z,1018.510
2017-05-04T19:29:45.821Z,1018.519
2017-05-04T19:32:40.123Z,1018.530
2017-05-04T19:35:34.417Z,1018.526
2017-05-04T19:38:29.056Z,1018.572
2017-05-04T19:41:23.191Z,1018.553
2017-05-04T19:44:17.449Z,1018.561
2017-05-04T19:47:11.766Z,1018.606
2017-05-04T19:50:06.056Z,1018.596
2017-05-04T19:53:00.275Z,1018.594
2017-05-04T19:55:54.557Z,1018.638
2017-05-04T20:01:43.036Z,1018.664
2017-05-04T20:07:31.632Z,1018.681
2017-05-04T20:10:25.816Z,1018.691
2017-05-04T20:16:14.372Z,1018.716
2017-05-04T20:19:08.635Z,1018.683
2017-05-04T20:24:57.103Z,1018.681
2017-05-04T20:30:45.622Z,1018.689
2017-05-04T20:33:39.917Z,1018.682
2017-05-04T20:36:34.211Z,1018.698
2017-05-04T20:39:28.410Z,1018.699
2017-05-04T20:45:16.989Z,1018.697
2017-05-04T20:48:11.644Z,1018.724
2017-05-04T20:51:05.848Z,1018.725
2017-05-04T20:54:00.164Z,1018.710
2017-05-04T20:56:54.393Z,1018.694
2017-05-04T20:59:48.721Z,1018.741
2017-05-04T21:02:43.025Z,1018.748
2017-05-04T21:08:31.643Z,1018.726
2017-05-04T21:11:25.850Z,1018.741
2017-05-04T21:14:20.081Z,1018.764
2017-05-04T21:17:14.532Z,1018.764
2017-05-04T21:20:08.788Z,1018.772
2017-05-04T21:23:02.966Z,1018.762
2017-05-04T21:25:57.144Z,1018.763
2017-05-04T21:28:51.409Z,1018.767
2017-05-04T21:31:45.718Z,1018.770
2017-05-04T21:34:40.010Z,1018.759
2017-05-04T21:40:28.630Z,1018.748
2017-05-04T21:43:22.903Z,1018.755
2017-05-04T21:46:17.214Z,1018.753
2017-05-04T21:49:11.533Z,1018.767
2017-05-04T21:52:05.840Z,1018.803
2017-05-04T21:55:00.145Z,1018.792
2017-05-04T21:57:54.421Z,1018.800
2017-05-04T22:00:48.661Z,1018.805
2017-05-04T22:09:31.527Z,1018.803
2017-05-04T22:12:25.693Z,1018.806
2017-05-04T22:15:20.032Z,1018.835
2017-05-04T22:18:14.282Z,1018.835
2017-05-04T22:24:03.009Z,1018.809
2017-05-04T22:26:57.362Z,1018.829
2017-05-04T22:32:46.033Z,1018.785
2017-05-04T22:35:40.262Z,1018.765
2017-05-04T22:38:34.577Z,1018.775
2017-05-04T22:47:17.569Z,1018.769
2017-05-04T22:50:11.828Z,1018.768
2017-05-04T22:53:06.185Z,1018.759
2017-05-04T22:56:00.532Z,1018.806
2017-05-04T22:58:54.754Z,1018.817
2017-05-04T23:04:43.376Z,1018.861
2017-05-04T23:07:37.722Z,1018.860
2017-05-04T23:10:31.971Z,1018.876
2017-05-04T23:16:20.632Z,1018.934
2017-05-04T23:19:14.917Z,1018.943
2017-05-04T23:22:09.357Z,1018.921
2017-05-04T23:25:03.660Z,1018.943
2017-05-04T23:27:57.953Z,1018.981
2017-05-04T23:30:52.168Z,1019.003
2017-05-04T23:33:46.476Z,1019.003
2017-05-04T23:36:40.710Z,1019.007
2017-05-04T23:39:35.031Z,1018.976
2017-05-04T23:42:29.323Z,1018.911
2017-05-04T23:45:23.665Z,1018.901
2017-05-04T23:48:18.144Z,1018.864
2017-05-04T23:51:12.407Z,1018.846
2017-05-04T23:54:06.669Z,1018.859
2017-05-04T23:57:00.882Z,1018.859
2017-05-04T23:59:55.064Z,1018.855
